sensor_id;sensor_type;location;lat;lon;timestamp;P1;durP1;ratioP1;P2;durP2;ratioP2
84476;SDS011;74700;43.228;0.108;2024-02-28T00:00:35;34.30;;;6.05;;
84476;SDS011;74700;43.228;0.108;2024-02-28T00:03:01;19.23;;;4.45;;
84476;SDS011;74700;43.228;0.108;2024-02-28T00:05:27;17.92;;;5.20;;
84476;SDS011;74700;43.228;0.108;2024-02-28T00:07:53;15.13;;;4.47;;
84476;SDS011;74700;43.228;0.108;2024-02-28T00:10:19;15.40;;;3.90;;
84476;SDS011;74700;43.228;0.108;2024-02-28T00:12:45;23.27;;;4.30;;
84476;SDS011;74700;43.228;0.108;2024-02-28T00:15:11;17.17;;;4.90;;
84476;SDS011;74700;43.228;0.108;2024-02-28T00:17:40;15.05;;;3.83;;
84476;SDS011;74700;43.228;0.108;2024-02-28T00:20:07;26.05;;;5.43;;
84476;SDS011;74700;43.228;0.108;2024-02-28T00:22:34;22.90;;;4.78;;
84476;SDS011;74700;43.228;0.108;2024-02-28T00:25:00;21.27;;;4.65;;
84476;SDS011;74700;43.228;0.108;2024-02-28T00:27:26;18.17;;;3.95;;
84476;SDS011;74700;43.228;0.108;2024-02-28T00:29:53;20.80;;;4.32;;
84476;SDS011;74700;43.228;0.108;2024-02-28T00:32:19;25.15;;;4.57;;
84476;SDS011;74700;43.228;0.108;2024-02-28T00:34:45;19.85;;;4.10;;
84476;SDS011;74700;43.228;0.108;2024-02-28T00:37:11;21.17;;;4.50;;
84476;SDS011;74700;43.228;0.108;2024-02-28T00:39:37;19.92;;;4.28;;
84476;SDS011;74700;43.228;0.108;2024-02-28T00:42:03;18.02;;;4.38;;
84476;SDS011;74700;43.228;0.108;2024-02-28T00:44:29;16.02;;;4.38;;
84476;SDS011;74700;43.228;0.108;2024-02-28T00:46:55;18.02;;;3.85;;
84476;SDS011;74700;43.228;0.108;2024-02-28T00:49:21;29.35;;;4.40;;
84476;SDS011;74700;43.228;0.108;2024-02-28T00:51:47;22.80;;;4.68;;
84476;SDS011;74700;43.228;0.108;2024-02-28T00:54:13;27.17;;;4.38;;
84476;SDS011;74700;43.228;0.108;2024-02-28T00:56:39;17.00;;;4.30;;
84476;SDS011;74700;43.228;0.108;2024-02-28T00:59:05;19.70;;;4.50;;
84476;SDS011;74700;43.228;0.108;2024-02-28T01:01:35;19.48;;;4.28;;
84476;SDS011;74700;43.228;0.108;2024-02-28T01:04:01;25.95;;;4.10;;
84476;SDS011;74700;43.228;0.108;2024-02-28T01:06:27;22.40;;;4.75;;
84476;SDS011;74700;43.228;0.108;2024-02-28T01:08:53;20.10;;;3.80;;
84476;SDS011;74700;43.228;0.108;2024-02-28T01:11:19;27.83;;;3.88;;
84476;SDS011;74700;43.228;0.108;2024-02-28T01:13:45;23.45;;;4.03;;
84476;SDS011;74700;43.228;0.108;2024-02-28T01:16:11;25.98;;;4.65;;
84476;SDS011;74700;43.228;0.108;2024-02-28T01:18:37;22.70;;;4.10;;
84476;SDS011;74700;43.228;0.108;2024-02-28T01:21:03;22.40;;;4.97;;
84476;SDS011;74700;43.228;0.108;2024-02-28T01:23:29;23.98;;;3.60;;
84476;SDS011;74700;43.228;0.108;2024-02-28T01:25:55;22.80;;;4.63;;
84476;SDS011;74700;43.228;0.108;2024-02-28T01:28:21;20.83;;;4.10;;
84476;SDS011;74700;43.228;0.108;2024-02-28T01:30:47;23.95;;;4.53;;
84476;SDS011;74700;43.228;0.108;2024-02-28T01:33:14;19.30;;;3.90;;
84476;SDS011;74700;43.228;0.108;2024-02-28T01:35:40;20.00;;;3.80;;
84476;SDS011;74700;43.228;0.108;2024-02-28T01:38:06;26.17;;;4.18;;
84476;SDS011;74700;43.228;0.108;2024-02-28T01:40:32;17.85;;;3.80;;
84476;SDS011;74700;43.228;0.108;2024-02-28T01:43:07;26.88;;;3.80;;
84476;SDS011;74700;43.228;0.108;2024-02-28T01:45:33;10.45;;;3.40;;
84476;SDS011;74700;43.228;0.108;2024-02-28T01:48:00;20.50;;;2.95;;
84476;SDS011;74700;43.228;0.108;2024-02-28T01:50:26;15.55;;;3.67;;
84476;SDS011;74700;43.228;0.108;2024-02-28T01:52:52;12.05;;;3.28;;
84476;SDS011;74700;43.228;0.108;2024-02-28T01:55:18;19.25;;;3.83;;
84476;SDS011;74700;43.228;0.108;2024-02-28T01:57:44;22.25;;;4.25;;
84476;SDS011;74700;43.228;0.108;2024-02-28T02:00:11;18.50;;;4.90;;
84476;SDS011;74700;43.228;0.108;2024-02-28T02:02:37;14.82;;;3.58;;
84476;SDS011;74700;43.228;0.108;2024-02-28T02:05:03;14.85;;;3.83;;
84476;SDS011;74700;43.228;0.108;2024-02-28T02:07:30;29.65;;;4.55;;
84476;SDS011;74700;43.228;0.108;2024-02-28T02:09:56;26.27;;;4.20;;
84476;SDS011;74700;43.228;0.108;2024-02-28T02:12:23;17.80;;;3.90;;
84476;SDS011;74700;43.228;0.108;2024-02-28T02:14:49;17.83;;;3.85;;
84476;SDS011;74700;43.228;0.108;2024-02-28T02:17:15;16.42;;;3.95;;
84476;SDS011;74700;43.228;0.108;2024-02-28T02:19:41;22.77;;;3.80;;
84476;SDS011;74700;43.228;0.108;2024-02-28T02:22:08;25.13;;;3.80;;
84476;SDS011;74700;43.228;0.108;2024-02-28T02:24:34;20.17;;;4.35;;
84476;SDS011;74700;43.228;0.108;2024-02-28T02:27:01;23.38;;;3.97;;
84476;SDS011;74700;43.228;0.108;2024-02-28T02:29:30;24.25;;;3.53;;
84476;SDS011;74700;43.228;0.108;2024-02-28T02:31:57;22.08;;;4.07;;
84476;SDS011;74700;43.228;0.108;2024-02-28T02:34:23;21.80;;;4.18;;
84476;SDS011;74700;43.228;0.108;2024-02-28T02:36:49;17.65;;;3.50;;
84476;SDS011;74700;43.228;0.108;2024-02-28T02:39:15;25.40;;;4.15;;
84476;SDS011;74700;43.228;0.108;2024-02-28T02:41:41;21.33;;;3.97;;
84476;SDS011;74700;43.228;0.108;2024-02-28T02:44:07;17.23;;;3.97;;
84476;SDS011;74700;43.228;0.108;2024-02-28T02:46:33;24.48;;;4.63;;
84476;SDS011;74700;43.228;0.108;2024-02-28T02:48:59;23.08;;;3.72;;
84476;SDS011;74700;43.228;0.108;2024-02-28T02:51:25;16.38;;;3.92;;
84476;SDS011;74700;43.228;0.108;2024-02-28T02:53:51;24.83;;;3.38;;
84476;SDS011;74700;43.228;0.108;2024-02-28T02:56:18;17.30;;;3.70;;
84476;SDS011;74700;43.228;0.108;2024-02-28T02:58:44;16.33;;;3.92;;
84476;SDS011;74700;43.228;0.108;2024-02-28T03:01:10;17.15;;;3.88;;
84476;SDS011;74700;43.228;0.108;2024-02-28T03:03:36;24.23;;;3.53;;
84476;SDS011;74700;43.228;0.108;2024-02-28T03:06:03;22.88;;;3.58;;
84476;SDS011;74700;43.228;0.108;2024-02-28T03:08:30;24.48;;;4.70;;
84476;SDS011;74700;43.228;0.108;2024-02-28T03:10:56;19.95;;;4.13;;
84476;SDS011;74700;43.228;0.108;2024-02-28T03:13:22;21.70;;;3.80;;
84476;SDS011;74700;43.228;0.108;2024-02-28T03:15:48;24.10;;;3.63;;
84476;SDS011;74700;43.228;0.108;2024-02-28T03:18:14;24.13;;;4.00;;
84476;SDS011;74700;43.228;0.108;2024-02-28T03:20:40;22.25;;;4.03;;
84476;SDS011;74700;43.228;0.108;2024-02-28T03:23:06;20.00;;;3.45;;
84476;SDS011;74700;43.228;0.108;2024-02-28T03:25:32;29.27;;;3.83;;
84476;SDS011;74700;43.228;0.108;2024-02-28T03:27:59;21.30;;;3.40;;
84476;SDS011;74700;43.228;0.108;2024-02-28T03:30:26;24.98;;;4.03;;
84476;SDS011;74700;43.228;0.108;2024-02-28T03:32:52;18.70;;;3.33;;
84476;SDS011;74700;43.228;0.108;2024-02-28T03:35:18;26.40;;;3.75;;
84476;SDS011;74700;43.228;0.108;2024-02-28T03:37:44;16.35;;;3.42;;
84476;SDS011;74700;43.228;0.108;2024-02-28T03:40:10;17.23;;;3.15;;
84476;SDS011;74700;43.228;0.108;2024-02-28T03:42:36;24.05;;;3.35;;
84476;SDS011;74700;43.228;0.108;2024-02-28T03:45:03;26.02;;;4.05;;
84476;SDS011;74700;43.228;0.108;2024-02-28T03:47:29;14.77;;;3.40;;
84476;SDS011;74700;43.228;0.108;2024-02-28T03:49:55;23.25;;;3.58;;
84476;SDS011;74700;43.228;0.108;2024-02-28T03:52:22;16.00;;;3.25;;
84476;SDS011;74700;43.228;0.108;2024-02-28T03:54:48;14.25;;;3.53;;
84476;SDS011;74700;43.228;0.108;2024-02-28T03:57:14;13.82;;;3.40;;
84476;SDS011;74700;43.228;0.108;2024-02-28T03:59:41;22.65;;;3.53;;
84476;SDS011;74700;43.228;0.108;2024-02-28T04:02:07;23.70;;;3.83;;
84476;SDS011;74700;43.228;0.108;2024-02-28T04:04:33;19.15;;;3.10;;
84476;SDS011;74700;43.228;0.108;2024-02-28T04:06:59;16.95;;;3.40;;
84476;SDS011;74700;43.228;0.108;2024-02-28T04:09:25;23.30;;;3.92;;
84476;SDS011;74700;43.228;0.108;2024-02-28T04:11:51;20.42;;;3.65;;
84476;SDS011;74700;43.228;0.108;2024-02-28T04:14:17;17.25;;;3.42;;
84476;SDS011;74700;43.228;0.108;2024-02-28T04:16:43;14.80;;;3.47;;
84476;SDS011;74700;43.228;0.108;2024-02-28T04:19:10;17.27;;;3.47;;
84476;SDS011;74700;43.228;0.108;2024-02-28T04:21:36;11.73;;;3.95;;
84476;SDS011;74700;43.228;0.108;2024-02-28T04:24:03;17.92;;;3.63;;
84476;SDS011;74700;43.228;0.108;2024-02-28T04:26:29;14.90;;;4.28;;
84476;SDS011;74700;43.228;0.108;2024-02-28T04:28:55;21.88;;;3.67;;
84476;SDS011;74700;43.228;0.108;2024-02-28T04:31:21;11.85;;;3.22;;
84476;SDS011;74700;43.228;0.108;2024-02-28T04:33:47;14.10;;;2.97;;
84476;SDS011;74700;43.228;0.108;2024-02-28T04:36:13;16.20;;;3.22;;
84476;SDS011;74700;43.228;0.108;2024-02-28T04:38:41;19.48;;;2.88;;
84476;SDS011;74700;43.228;0.108;2024-02-28T04:41:07;18.45;;;3.47;;
84476;SDS011;74700;43.228;0.108;2024-02-28T04:43:33;19.35;;;3.83;;
84476;SDS011;74700;43.228;0.108;2024-02-28T04:45:59;19.52;;;3.38;;
84476;SDS011;74700;43.228;0.108;2024-02-28T04:48:25;17.50;;;3.40;;
84476;SDS011;74700;43.228;0.108;2024-02-28T04:50:51;20.10;;;3.30;;
84476;SDS011;74700;43.228;0.108;2024-02-28T04:53:17;11.45;;;3.17;;
84476;SDS011;74700;43.228;0.108;2024-02-28T04:55:43;35.33;;;3.97;;
84476;SDS011;74700;43.228;0.108;2024-02-28T04:58:09;23.08;;;3.92;;
84476;SDS011;74700;43.228;0.108;2024-02-28T05:00:35;26.63;;;3.53;;
84476;SDS011;74700;43.228;0.108;2024-02-28T05:03:01;25.38;;;3.42;;
84476;SDS011;74700;43.228;0.108;2024-02-28T05:05:27;12.93;;;3.60;;
84476;SDS011;74700;43.228;0.108;2024-02-28T05:07:53;9.50;;;2.67;;
84476;SDS011;74700;43.228;0.108;2024-02-28T05:10:19;14.07;;;3.05;;
84476;SDS011;74700;43.228;0.108;2024-02-28T05:12:45;20.00;;;3.95;;
84476;SDS011;74700;43.228;0.108;2024-02-28T05:15:11;27.23;;;3.58;;
84476;SDS011;74700;43.228;0.108;2024-02-28T05:17:37;16.77;;;2.83;;
84476;SDS011;74700;43.228;0.108;2024-02-28T05:20:04;18.10;;;3.28;;
84476;SDS011;74700;43.228;0.108;2024-02-28T05:22:30;10.57;;;3.28;;
84476;SDS011;74700;43.228;0.108;2024-02-28T05:24:56;14.93;;;3.30;;
84476;SDS011;74700;43.228;0.108;2024-02-28T05:27:22;10.23;;;3.08;;
84476;SDS011;74700;43.228;0.108;2024-02-28T05:29:48;12.73;;;2.83;;
84476;SDS011;74700;43.228;0.108;2024-02-28T05:32:14;14.60;;;3.13;;
84476;SDS011;74700;43.228;0.108;2024-02-28T05:34:42;11.43;;;3.85;;
84476;SDS011;74700;43.228;0.108;2024-02-28T05:37:08;18.92;;;3.28;;
84476;SDS011;74700;43.228;0.108;2024-02-28T05:39:34;13.23;;;3.70;;
84476;SDS011;74700;43.228;0.108;2024-02-28T05:42:00;11.63;;;3.28;;
84476;SDS011;74700;43.228;0.108;2024-02-28T05:44:26;16.13;;;3.00;;
84476;SDS011;74700;43.228;0.108;2024-02-28T05:46:52;13.88;;;3.20;;
84476;SDS011;74700;43.228;0.108;2024-02-28T05:49:18;19.75;;;3.15;;
84476;SDS011;74700;43.228;0.108;2024-02-28T05:51:44;11.18;;;2.92;;
84476;SDS011;74700;43.228;0.108;2024-02-28T05:54:11;10.70;;;2.70;;
84476;SDS011;74700;43.228;0.108;2024-02-28T05:56:37;17.23;;;4.00;;
84476;SDS011;74700;43.228;0.108;2024-02-28T05:59:04;6.43;;;2.58;;
84476;SDS011;74700;43.228;0.108;2024-02-28T06:01:30;11.65;;;2.95;;
84476;SDS011;74700;43.228;0.108;2024-02-28T06:03:56;10.65;;;3.10;;
84476;SDS011;74700;43.228;0.108;2024-02-28T06:06:22;10.85;;;3.28;;
84476;SDS011;74700;43.228;0.108;2024-02-28T06:08:48;17.63;;;3.22;;
84476;SDS011;74700;43.228;0.108;2024-02-28T06:11:14;14.88;;;3.63;;
84476;SDS011;74700;43.228;0.108;2024-02-28T06:13:40;14.73;;;3.15;;
84476;SDS011;74700;43.228;0.108;2024-02-28T06:16:06;13.55;;;3.17;;
84476;SDS011;74700;43.228;0.108;2024-02-28T06:18:32;14.20;;;3.13;;
84476;SDS011;74700;43.228;0.108;2024-02-28T06:20:59;10.38;;;2.90;;
84476;SDS011;74700;43.228;0.108;2024-02-28T06:23:25;11.73;;;3.05;;
84476;SDS011;74700;43.228;0.108;2024-02-28T06:25:51;6.60;;;2.83;;
84476;SDS011;74700;43.228;0.108;2024-02-28T06:28:18;22.13;;;12.10;;
84476;SDS011;74700;43.228;0.108;2024-02-28T06:30:44;18.63;;;6.50;;
84476;SDS011;74700;43.228;0.108;2024-02-28T06:33:13;23.80;;;7.00;;
84476;SDS011;74700;43.228;0.108;2024-02-28T06:35:39;32.75;;;14.07;;
84476;SDS011;74700;43.228;0.108;2024-02-28T06:38:05;16.35;;;4.78;;
84476;SDS011;74700;43.228;0.108;2024-02-28T06:40:32;22.15;;;4.05;;
84476;SDS011;74700;43.228;0.108;2024-02-28T06:42:58;26.75;;;4.63;;
84476;SDS011;74700;43.228;0.108;2024-02-28T06:45:24;19.48;;;4.95;;
84476;SDS011;74700;43.228;0.108;2024-02-28T06:47:52;7.68;;;3.33;;
84476;SDS011;74700;43.228;0.108;2024-02-28T06:50:18;18.40;;;3.42;;
84476;SDS011;74700;43.228;0.108;2024-02-28T06:52:44;13.75;;;3.15;;
84476;SDS011;74700;43.228;0.108;2024-02-28T06:55:10;14.45;;;4.30;;
84476;SDS011;74700;43.228;0.108;2024-02-28T06:57:37;13.40;;;4.53;;
84476;SDS011;74700;43.228;0.108;2024-02-28T07:00:06;11.88;;;4.07;;
84476;SDS011;74700;43.228;0.108;2024-02-28T07:02:43;10.88;;;3.45;;
84476;SDS011;74700;43.228;0.108;2024-02-28T07:05:09;15.80;;;4.10;;
84476;SDS011;74700;43.228;0.108;2024-02-28T07:07:36;14.95;;;4.10;;
84476;SDS011;74700;43.228;0.108;2024-02-28T07:10:03;9.65;;;3.97;;
84476;SDS011;74700;43.228;0.108;2024-02-28T07:12:32;15.35;;;4.55;;
84476;SDS011;74700;43.228;0.108;2024-02-28T07:14:58;12.70;;;4.20;;
84476;SDS011;74700;43.228;0.108;2024-02-28T07:17:24;10.57;;;3.92;;
84476;SDS011;74700;43.228;0.108;2024-02-28T07:19:50;13.38;;;4.45;;
84476;SDS011;74700;43.228;0.108;2024-02-28T07:22:16;20.95;;;4.88;;
84476;SDS011;74700;43.228;0.108;2024-02-28T07:24:42;11.55;;;3.78;;
84476;SDS011;74700;43.228;0.108;2024-02-28T07:27:08;16.40;;;3.67;;
84476;SDS011;74700;43.228;0.108;2024-02-28T07:29:36;11.07;;;3.63;;
84476;SDS011;74700;43.228;0.108;2024-02-28T07:32:02;15.57;;;3.83;;
84476;SDS011;74700;43.228;0.108;2024-02-28T07:34:28;20.77;;;5.18;;
84476;SDS011;74700;43.228;0.108;2024-02-28T07:36:54;28.02;;;5.25;;
84476;SDS011;74700;43.228;0.108;2024-02-28T07:39:20;22.13;;;3.83;;
84476;SDS011;74700;43.228;0.108;2024-02-28T07:41:46;20.95;;;4.93;;
84476;SDS011;74700;43.228;0.108;2024-02-28T07:44:12;21.83;;;5.72;;
84476;SDS011;74700;43.228;0.108;2024-02-28T07:46:40;20.02;;;6.00;;
84476;SDS011;74700;43.228;0.108;2024-02-28T07:49:06;26.45;;;6.53;;
84476;SDS011;74700;43.228;0.108;2024-02-28T07:51:32;20.15;;;6.28;;
84476;SDS011;74700;43.228;0.108;2024-02-28T07:53:58;19.38;;;5.65;;
84476;SDS011;74700;43.228;0.108;2024-02-28T07:56:25;16.33;;;6.10;;
84476;SDS011;74700;43.228;0.108;2024-02-28T07:58:51;22.70;;;6.35;;
84476;SDS011;74700;43.228;0.108;2024-02-28T08:01:17;22.02;;;5.82;;
84476;SDS011;74700;43.228;0.108;2024-02-28T08:03:44;21.75;;;5.63;;
84476;SDS011;74700;43.228;0.108;2024-02-28T08:06:11;18.15;;;4.78;;
84476;SDS011;74700;43.228;0.108;2024-02-28T08:08:37;13.02;;;3.50;;
84476;SDS011;74700;43.228;0.108;2024-02-28T08:11:03;9.20;;;3.40;;
84476;SDS011;74700;43.228;0.108;2024-02-28T08:13:29;6.15;;;2.55;;
84476;SDS011;74700;43.228;0.108;2024-02-28T08:15:57;5.13;;;2.45;;
84476;SDS011;74700;43.228;0.108;2024-02-28T08:18:24;5.85;;;2.83;;
84476;SDS011;74700;43.228;0.108;2024-02-28T08:20:51;9.25;;;2.25;;
84476;SDS011;74700;43.228;0.108;2024-02-28T08:23:18;12.82;;;2.75;;
84476;SDS011;74700;43.228;0.108;2024-02-28T08:25:44;7.78;;;2.20;;
84476;SDS011;74700;43.228;0.108;2024-02-28T08:28:10;4.53;;;2.13;;
84476;SDS011;74700;43.228;0.108;2024-02-28T08:30:36;7.25;;;2.35;;
84476;SDS011;74700;43.228;0.108;2024-02-28T08:33:02;6.97;;;1.92;;
84476;SDS011;74700;43.228;0.108;2024-02-28T08:35:28;14.07;;;2.90;;
84476;SDS011;74700;43.228;0.108;2024-02-28T08:37:54;4.85;;;1.75;;
84476;SDS011;74700;43.228;0.108;2024-02-28T08:40:20;8.38;;;2.65;;
84476;SDS011;74700;43.228;0.108;2024-02-28T08:42:46;11.35;;;2.63;;
84476;SDS011;74700;43.228;0.108;2024-02-28T08:45:14;6.18;;;1.85;;
84476;SDS011;74700;43.228;0.108;2024-02-28T08:47:40;5.28;;;1.88;;
84476;SDS011;74700;43.228;0.108;2024-02-28T08:50:07;7.70;;;2.30;;
84476;SDS011;74700;43.228;0.108;2024-02-28T08:52:33;12.68;;;2.55;;
84476;SDS011;74700;43.228;0.108;2024-02-28T08:54:59;5.82;;;1.80;;
84476;SDS011;74700;43.228;0.108;2024-02-28T08:57:25;4.28;;;1.83;;
84476;SDS011;74700;43.228;0.108;2024-02-28T08:59:51;6.13;;;1.77;;
84476;SDS011;74700;43.228;0.108;2024-02-28T09:02:17;8.43;;;2.10;;
84476;SDS011;74700;43.228;0.108;2024-02-28T09:04:43;5.95;;;1.70;;
84476;SDS011;74700;43.228;0.108;2024-02-28T09:07:09;4.35;;;1.60;;
84476;SDS011;74700;43.228;0.108;2024-02-28T09:09:40;6.72;;;2.15;;
84476;SDS011;74700;43.228;0.108;2024-02-28T09:12:06;10.10;;;2.20;;
84476;SDS011;74700;43.228;0.108;2024-02-28T09:14:32;10.68;;;2.38;;
84476;SDS011;74700;43.228;0.108;2024-02-28T09:16:58;8.30;;;2.47;;
84476;SDS011;74700;43.228;0.108;2024-02-28T09:19:28;10.57;;;2.20;;
84476;SDS011;74700;43.228;0.108;2024-02-28T09:21:54;6.30;;;2.03;;
84476;SDS011;74700;43.228;0.108;2024-02-28T09:24:20;6.88;;;1.63;;
84476;SDS011;74700;43.228;0.108;2024-02-28T09:26:46;4.10;;;1.98;;
84476;SDS011;74700;43.228;0.108;2024-02-28T09:29:12;3.55;;;1.42;;
84476;SDS011;74700;43.228;0.108;2024-02-28T09:31:38;5.10;;;1.60;;
84476;SDS011;74700;43.228;0.108;2024-02-28T09:34:04;4.18;;;1.33;;
84476;SDS011;74700;43.228;0.108;2024-02-28T09:36:33;9.43;;;2.10;;
84476;SDS011;74700;43.228;0.108;2024-02-28T09:38:59;5.88;;;1.75;;
84476;SDS011;74700;43.228;0.108;2024-02-28T09:41:25;5.00;;;1.60;;
84476;SDS011;74700;43.228;0.108;2024-02-28T09:43:52;5.53;;;1.45;;
84476;SDS011;74700;43.228;0.108;2024-02-28T09:46:18;5.47;;;1.45;;
84476;SDS011;74700;43.228;0.108;2024-02-28T09:48:44;4.15;;;1.30;;
84476;SDS011;74700;43.228;0.108;2024-02-28T09:51:14;4.25;;;1.73;;
84476;SDS011;74700;43.228;0.108;2024-02-28T09:53:41;10.10;;;1.42;;
84476;SDS011;74700;43.228;0.108;2024-02-28T09:56:07;4.00;;;1.20;;
84476;SDS011;74700;43.228;0.108;2024-02-28T09:58:33;9.13;;;1.77;;
84476;SDS011;74700;43.228;0.108;2024-02-28T10:01:00;16.98;;;1.30;;
84476;SDS011;74700;43.228;0.108;2024-02-28T10:03:30;7.05;;;1.42;;
84476;SDS011;74700;43.228;0.108;2024-02-28T10:05:57;3.08;;;1.13;;
84476;SDS011;74700;43.228;0.108;2024-02-28T10:08:23;2.72;;;0.80;;
84476;SDS011;74700;43.228;0.108;2024-02-28T10:10:49;2.30;;;1.10;;
84476;SDS011;74700;43.228;0.108;2024-02-28T10:13:19;3.25;;;1.13;;
84476;SDS011;74700;43.228;0.108;2024-02-28T10:15:45;1.58;;;0.90;;
84476;SDS011;74700;43.228;0.108;2024-02-28T10:18:11;9.07;;;1.30;;
84476;SDS011;74700;43.228;0.108;2024-02-28T10:20:37;0.95;;;0.85;;
84476;SDS011;74700;43.228;0.108;2024-02-28T10:23:04;1.83;;;0.93;;
84476;SDS011;74700;43.228;0.108;2024-02-28T10:25:30;0.88;;;0.85;;
84476;SDS011;74700;43.228;0.108;2024-02-28T10:28:00;1.20;;;1.15;;
84476;SDS011;74700;43.228;0.108;2024-02-28T10:30:26;0.93;;;0.93;;
84476;SDS011;74700;43.228;0.108;2024-02-28T10:32:52;1.17;;;0.95;;
84476;SDS011;74700;43.228;0.108;2024-02-28T10:35:19;4.68;;;1.35;;
84476;SDS011;74700;43.228;0.108;2024-02-28T10:37:46;1.98;;;1.13;;
84476;SDS011;74700;43.228;0.108;2024-02-28T10:40:15;1.00;;;1.00;;
84476;SDS011;74700;43.228;0.108;2024-02-28T10:42:42;3.13;;;1.10;;
84476;SDS011;74700;43.228;0.108;2024-02-28T10:45:12;4.82;;;1.23;;
84476;SDS011;74700;43.228;0.108;2024-02-28T10:47:38;2.15;;;1.30;;
84476;SDS011;74700;43.228;0.108;2024-02-28T10:50:05;3.42;;;1.15;;
84476;SDS011;74700;43.228;0.108;2024-02-28T10:52:33;3.65;;;1.27;;
84476;SDS011;74700;43.228;0.108;2024-02-28T10:54:59;3.85;;;1.17;;
84476;SDS011;74700;43.228;0.108;2024-02-28T10:57:25;3.00;;;1.80;;
84476;SDS011;74700;43.228;0.108;2024-02-28T10:59:52;2.65;;;1.30;;
84476;SDS011;74700;43.228;0.108;2024-02-28T11:02:19;3.70;;;1.27;;
84476;SDS011;74700;43.228;0.108;2024-02-28T11:04:46;3.35;;;1.30;;
84476;SDS011;74700;43.228;0.108;2024-02-28T11:07:18;1.17;;;1.00;;
84476;SDS011;74700;43.228;0.108;2024-02-28T11:09:44;1.73;;;1.63;;
84476;SDS011;74700;43.228;0.108;2024-02-28T11:12:32;2.67;;;1.50;;
84476;SDS011;74700;43.228;0.108;2024-02-28T11:15:01;1.77;;;1.67;;
84476;SDS011;74700;43.228;0.108;2024-02-28T11:17:29;4.07;;;1.55;;
84476;SDS011;74700;43.228;0.108;2024-02-28T11:19:56;2.15;;;1.25;;
84476;SDS011;74700;43.228;0.108;2024-02-28T11:22:22;6.57;;;1.60;;
84476;SDS011;74700;43.228;0.108;2024-02-28T11:24:48;3.58;;;2.00;;
84476;SDS011;74700;43.228;0.108;2024-02-28T11:27:17;2.58;;;1.90;;
84476;SDS011;74700;43.228;0.108;2024-02-28T11:29:43;7.57;;;2.00;;
84476;SDS011;74700;43.228;0.108;2024-02-28T11:32:14;1.40;;;1.30;;
84476;SDS011;74700;43.228;0.108;2024-02-28T11:34:41;3.25;;;1.50;;
84476;SDS011;74700;43.228;0.108;2024-02-28T11:37:08;2.28;;;1.73;;
84476;SDS011;74700;43.228;0.108;2024-02-28T11:39:34;1.48;;;1.38;;
84476;SDS011;74700;43.228;0.108;2024-02-28T11:42:17;1.48;;;1.35;;
84476;SDS011;74700;43.228;0.108;2024-02-28T11:44:52;2.05;;;1.52;;
84476;SDS011;74700;43.228;0.108;2024-02-28T11:47:19;1.35;;;1.25;;
84476;SDS011;74700;43.228;0.108;2024-02-28T11:49:45;1.38;;;1.30;;
84476;SDS011;74700;43.228;0.108;2024-02-28T11:52:11;5.85;;;1.55;;
84476;SDS011;74700;43.228;0.108;2024-02-28T11:54:39;1.13;;;1.13;;
84476;SDS011;74700;43.228;0.108;2024-02-28T11:57:05;1.05;;;1.05;;
84476;SDS011;74700;43.228;0.108;2024-02-28T11:59:33;1.00;;;1.00;;
84476;SDS011;74700;43.228;0.108;2024-02-28T12:01:59;1.35;;;1.25;;
84476;SDS011;74700;43.228;0.108;2024-02-28T12:04:25;2.25;;;1.33;;
84476;SDS011;74700;43.228;0.108;2024-02-28T12:06:51;1.40;;;1.30;;
84476;SDS011;74700;43.228;0.108;2024-02-28T12:09:17;2.40;;;1.30;;
84476;SDS011;74700;43.228;0.108;2024-02-28T12:11:43;2.80;;;1.20;;
84476;SDS011;74700;43.228;0.108;2024-02-28T12:14:09;3.95;;;1.10;;
84476;SDS011;74700;43.228;0.108;2024-02-28T12:16:36;2.53;;;1.42;;
84476;SDS011;74700;43.228;0.108;2024-02-28T12:19:09;1.90;;;1.70;;
84476;SDS011;74700;43.228;0.108;2024-02-28T12:21:38;2.25;;;1.30;;
84476;SDS011;74700;43.228;0.108;2024-02-28T12:24:08;4.32;;;1.35;;
84476;SDS011;74700;43.228;0.108;2024-02-28T12:26:34;3.50;;;1.58;;
84476;SDS011;74700;43.228;0.108;2024-02-28T12:29:00;1.95;;;1.50;;
84476;SDS011;74700;43.228;0.108;2024-02-28T12:31:27;0.98;;;0.98;;
84476;SDS011;74700;43.228;0.108;2024-02-28T12:33:53;1.35;;;1.25;;
84476;SDS011;74700;43.228;0.108;2024-02-28T12:36:19;1.38;;;1.00;;
84476;SDS011;74700;43.228;0.108;2024-02-28T12:38:45;1.17;;;1.17;;
84476;SDS011;74700;43.228;0.108;2024-02-28T12:41:12;2.45;;;1.10;;
84476;SDS011;74700;43.228;0.108;2024-02-28T12:43:38;4.03;;;1.10;;
84476;SDS011;74700;43.228;0.108;2024-02-28T12:46:04;1.25;;;1.15;;
84476;SDS011;74700;43.228;0.108;2024-02-28T12:48:31;2.85;;;1.33;;
84476;SDS011;74700;43.228;0.108;2024-02-28T12:50:57;1.25;;;1.13;;
84476;SDS011;74700;43.228;0.108;2024-02-28T12:53:23;3.63;;;1.40;;
84476;SDS011;74700;43.228;0.108;2024-02-28T12:55:49;5.68;;;1.38;;
84476;SDS011;74700;43.228;0.108;2024-02-28T12:58:15;2.22;;;1.90;;
84476;SDS011;74700;43.228;0.108;2024-02-28T13:00:41;1.77;;;1.67;;
84476;SDS011;74700;43.228;0.108;2024-02-28T13:03:08;4.93;;;1.38;;
84476;SDS011;74700;43.228;0.108;2024-02-28T13:05:34;1.20;;;1.10;;
84476;SDS011;74700;43.228;0.108;2024-02-28T13:08:00;1.00;;;1.00;;
84476;SDS011;74700;43.228;0.108;2024-02-28T13:10:26;0.90;;;0.90;;
84476;SDS011;74700;43.228;0.108;2024-02-28T13:12:52;1.50;;;1.35;;
84476;SDS011;74700;43.228;0.108;2024-02-28T13:15:18;1.00;;;1.00;;
84476;SDS011;74700;43.228;0.108;2024-02-28T13:17:44;1.05;;;1.02;;
84476;SDS011;74700;43.228;0.108;2024-02-28T13:20:14;1.27;;;1.20;;
84476;SDS011;74700;43.228;0.108;2024-02-28T13:22:40;0.90;;;0.90;;
84476;SDS011;74700;43.228;0.108;2024-02-28T13:25:06;1.20;;;1.20;;
84476;SDS011;74700;43.228;0.108;2024-02-28T13:27:34;1.50;;;1.08;;
84476;SDS011;74700;43.228;0.108;2024-02-28T13:30:00;5.07;;;1.92;;
84476;SDS011;74700;43.228;0.108;2024-02-28T13:32:26;1.00;;;1.00;;
84476;SDS011;74700;43.228;0.108;2024-02-28T13:34:52;1.00;;;0.82;;
84476;SDS011;74700;43.228;0.108;2024-02-28T13:37:18;0.82;;;0.82;;
84476;SDS011;74700;43.228;0.108;2024-02-28T13:39:44;1.10;;;1.10;;
84476;SDS011;74700;43.228;0.108;2024-02-28T13:42:11;1.00;;;1.00;;
84476;SDS011;74700;43.228;0.108;2024-02-28T13:44:37;1.23;;;1.23;;
84476;SDS011;74700;43.228;0.108;2024-02-28T13:47:03;1.55;;;1.27;;
84476;SDS011;74700;43.228;0.108;2024-02-28T13:49:29;1.90;;;1.40;;
84476;SDS011;74700;43.228;0.108;2024-02-28T13:51:55;7.22;;;1.23;;
84476;SDS011;74700;43.228;0.108;2024-02-28T13:54:21;1.20;;;1.20;;
84476;SDS011;74700;43.228;0.108;2024-02-28T13:56:47;1.38;;;1.10;;
84476;SDS011;74700;43.228;0.108;2024-02-28T13:59:13;1.67;;;1.58;;
84476;SDS011;74700;43.228;0.108;2024-02-28T14:01:39;9.48;;;1.45;;
84476;SDS011;74700;43.228;0.108;2024-02-28T14:04:05;3.50;;;1.25;;
84476;SDS011;74700;43.228;0.108;2024-02-28T14:06:32;2.05;;;1.15;;
84476;SDS011;74700;43.228;0.108;2024-02-28T14:08:58;2.63;;;1.05;;
84476;SDS011;74700;43.228;0.108;2024-02-28T14:11:24;1.35;;;1.23;;
84476;SDS011;74700;43.228;0.108;2024-02-28T14:13:50;1.50;;;1.40;;
84476;SDS011;74700;43.228;0.108;2024-02-28T14:16:16;1.40;;;1.40;;
84476;SDS011;74700;43.228;0.108;2024-02-28T14:18:44;2.03;;;1.60;;
84476;SDS011;74700;43.228;0.108;2024-02-28T14:21:10;2.35;;;1.45;;
84476;SDS011;74700;43.228;0.108;2024-02-28T14:23:36;1.45;;;1.30;;
84476;SDS011;74700;43.228;0.108;2024-02-28T14:26:02;1.85;;;1.70;;
84476;SDS011;74700;43.228;0.108;2024-02-28T14:28:28;2.00;;;1.38;;
84476;SDS011;74700;43.228;0.108;2024-02-28T14:30:54;1.70;;;1.15;;
84476;SDS011;74700;43.228;0.108;2024-02-28T14:33:20;3.55;;;1.38;;
84476;SDS011;74700;43.228;0.108;2024-02-28T14:35:47;3.28;;;1.30;;